Kithnos, Greece
Current Conditions -  °F | °C
As of 4:20 AM on Monday 22 Dec 2014 (Local Time) from LGAV Reporting Station
Scattered Clouds Scattered Clouds  
Wind Chill: 50°   Ceiling: Unl
Heat Index: 50°   Visibility: 6mi
Dew Point: 32°   Wind: 13mph
Humidity: 50%   Direction: 350°N
Pressure: 30.33"   Gusts: NA
Location:  37.42°N, 24.43°E
Report Text: LGAV 220120Z 35011KT 9999 FEW025 SCT070 10/M00 Q1027 NOSIG
Loading
Personal Weather Stations






























Interactive Weather Map New forecast layout! Learn more

10-Day Weather Forecast

Advertisements
Track Severe Weather on mobile